sensor_id;sensor_type;location;lat;lon;timestamp;temperature;humidity
52513;DHT22;38422;53.172;6.974;2024-01-06T00:02:16;2.30;99.90
52513;DHT22;38422;53.172;6.974;2024-01-06T00:04:42;2.30;99.90
52513;DHT22;38422;53.172;6.974;2024-01-06T00:07:07;2.30;99.90
52513;DHT22;38422;53.172;6.974;2024-01-06T00:09:33;2.30;99.90
52513;DHT22;38422;53.172;6.974;2024-01-06T00:11:59;2.30;99.90
52513;DHT22;38422;53.172;6.974;2024-01-06T00:14:24;2.30;99.90
52513;DHT22;38422;53.172;6.974;2024-01-06T00:16:50;2.30;99.90
52513;DHT22;38422;53.172;6.974;2024-01-06T00:19:16;2.30;99.90
52513;DHT22;38422;53.172;6.974;2024-01-06T00:21:43;2.30;99.90
52513;DHT22;38422;53.172;6.974;2024-01-06T00:24:08;2.30;99.90
52513;DHT22;38422;53.172;6.974;2024-01-06T00:26:34;2.30;99.90
52513;DHT22;38422;53.172;6.974;2024-01-06T00:29:00;2.30;99.90
52513;DHT22;38422;53.172;6.974;2024-01-06T00:31:26;2.30;99.90
52513;DHT22;38422;53.172;6.974;2024-01-06T00:33:51;2.30;99.90
52513;DHT22;38422;53.172;6.974;2024-01-06T00:36:17;2.30;99.90
52513;DHT22;38422;53.172;6.974;2024-01-06T00:38:42;2.30;99.90
52513;DHT22;38422;53.172;6.974;2024-01-06T00:41:08;2.20;99.90
52513;DHT22;38422;53.172;6.974;2024-01-06T00:43:34;2.20;99.90
52513;DHT22;38422;53.172;6.974;2024-01-06T00:46:00;2.20;99.90
52513;DHT22;38422;53.172;6.974;2024-01-06T00:48:25;2.20;99.90
52513;DHT22;38422;53.172;6.974;2024-01-06T00:50:51;2.20;99.90
52513;DHT22;38422;53.172;6.974;2024-01-06T00:53:17;2.20;99.90
52513;DHT22;38422;53.172;6.974;2024-01-06T00:55:42;2.20;99.90
52513;DHT22;38422;53.172;6.974;2024-01-06T00:58:08;2.30;99.90
52513;DHT22;38422;53.172;6.974;2024-01-06T01:00:34;2.20;99.90
52513;DHT22;38422;53.172;6.974;2024-01-06T01:03:00;2.30;99.90
52513;DHT22;38422;53.172;6.974;2024-01-06T01:05:25;2.20;99.90
52513;DHT22;38422;53.172;6.974;2024-01-06T01:07:51;2.20;99.90
52513;DHT22;38422;53.172;6.974;2024-01-06T01:10:17;2.20;99.90
52513;DHT22;38422;53.172;6.974;2024-01-06T01:12:42;2.20;99.90
52513;DHT22;38422;53.172;6.974;2024-01-06T01:15:08;2.20;99.90
52513;DHT22;38422;53.172;6.974;2024-01-06T01:17:34;2.20;99.90
52513;DHT22;38422;53.172;6.974;2024-01-06T01:19:59;2.20;99.90
52513;DHT22;38422;53.172;6.974;2024-01-06T01:22:25;2.20;99.90
52513;DHT22;38422;53.172;6.974;2024-01-06T01:24:51;2.20;99.90
52513;DHT22;38422;53.172;6.974;2024-01-06T01:27:16;2.20;99.90
52513;DHT22;38422;53.172;6.974;2024-01-06T01:29:42;2.20;99.90
52513;DHT22;38422;53.172;6.974;2024-01-06T01:32:08;2.20;99.90
52513;DHT22;38422;53.172;6.974;2024-01-06T01:34:33;2.20;99.90
52513;DHT22;38422;53.172;6.974;2024-01-06T01:37:00;2.20;99.90
52513;DHT22;38422;53.172;6.974;2024-01-06T01:39:25;2.20;99.90
52513;DHT22;38422;53.172;6.974;2024-01-06T01:41:51;2.20;99.90
52513;DHT22;38422;53.172;6.974;2024-01-06T01:44:17;2.10;99.90
52513;DHT22;38422;53.172;6.974;2024-01-06T01:46:42;2.10;99.90
52513;DHT22;38422;53.172;6.974;2024-01-06T01:49:08;2.10;99.90
52513;DHT22;38422;53.172;6.974;2024-01-06T01:51:35;2.10;99.90
52513;DHT22;38422;53.172;6.974;2024-01-06T01:54:02;2.00;99.90
52513;DHT22;38422;53.172;6.974;2024-01-06T01:56:30;2.10;99.90
52513;DHT22;38422;53.172;6.974;2024-01-06T01:59:02;2.00;99.90
52513;DHT22;38422;53.172;6.974;2024-01-06T02:01:30;2.00;99.90
52513;DHT22;38422;53.172;6.974;2024-01-06T02:03:57;2.00;99.90
52513;DHT22;38422;53.172;6.974;2024-01-06T02:06:23;2.00;99.90
52513;DHT22;38422;53.172;6.974;2024-01-06T02:08:49;2.00;99.90
52513;DHT22;38422;53.172;6.974;2024-01-06T02:11:14;2.00;99.90
52513;DHT22;38422;53.172;6.974;2024-01-06T02:13:40;2.00;99.90
52513;DHT22;38422;53.172;6.974;2024-01-06T02:16:06;2.00;99.90
52513;DHT22;38422;53.172;6.974;2024-01-06T02:18:32;2.00;99.90
52513;DHT22;38422;53.172;6.974;2024-01-06T02:21:00;2.00;99.90
52513;DHT22;38422;53.172;6.974;2024-01-06T02:23:26;2.00;99.90
52513;DHT22;38422;53.172;6.974;2024-01-06T02:25:52;1.90;99.90
52513;DHT22;38422;53.172;6.974;2024-01-06T02:28:18;1.90;99.90
52513;DHT22;38422;53.172;6.974;2024-01-06T02:30:43;1.90;99.90
52513;DHT22;38422;53.172;6.974;2024-01-06T02:33:09;1.90;99.90
52513;DHT22;38422;53.172;6.974;2024-01-06T02:35:35;1.90;99.90
52513;DHT22;38422;53.172;6.974;2024-01-06T02:38:01;1.90;99.90
52513;DHT22;38422;53.172;6.974;2024-01-06T02:40:27;1.90;99.90
52513;DHT22;38422;53.172;6.974;2024-01-06T02:42:53;1.90;99.90
52513;DHT22;38422;53.172;6.974;2024-01-06T02:45:18;1.90;99.90
52513;DHT22;38422;53.172;6.974;2024-01-06T02:47:44;1.80;99.90
52513;DHT22;38422;53.172;6.974;2024-01-06T02:50:10;1.90;99.90
52513;DHT22;38422;53.172;6.974;2024-01-06T02:52:36;1.80;99.90
52513;DHT22;38422;53.172;6.974;2024-01-06T02:55:01;1.80;99.90
52513;DHT22;38422;53.172;6.974;2024-01-06T02:57:29;1.80;99.90
52513;DHT22;38422;53.172;6.974;2024-01-06T02:59:54;1.80;99.90
52513;DHT22;38422;53.172;6.974;2024-01-06T03:02:20;1.80;99.90
52513;DHT22;38422;53.172;6.974;2024-01-06T03:04:46;1.80;99.90
52513;DHT22;38422;53.172;6.974;2024-01-06T03:07:11;1.70;99.90
52513;DHT22;38422;53.172;6.974;2024-01-06T03:09:37;1.70;99.90
52513;DHT22;38422;53.172;6.974;2024-01-06T03:12:08;1.80;99.90
52513;DHT22;38422;53.172;6.974;2024-01-06T03:14:37;1.70;99.90
52513;DHT22;38422;53.172;6.974;2024-01-06T03:17:03;1.70;99.90
52513;DHT22;38422;53.172;6.974;2024-01-06T03:19:30;1.70;99.90
52513;DHT22;38422;53.172;6.974;2024-01-06T03:21:56;1.70;99.90
52513;DHT22;38422;53.172;6.974;2024-01-06T03:24:23;1.70;99.90
52513;DHT22;38422;53.172;6.974;2024-01-06T03:26:49;1.70;99.90
52513;DHT22;38422;53.172;6.974;2024-01-06T03:29:14;1.70;99.90
52513;DHT22;38422;53.172;6.974;2024-01-06T03:31:46;1.70;99.90
52513;DHT22;38422;53.172;6.974;2024-01-06T03:34:12;1.70;99.90
52513;DHT22;38422;53.172;6.974;2024-01-06T03:36:39;1.70;99.90
52513;DHT22;38422;53.172;6.974;2024-01-06T03:39:05;1.70;99.90
52513;DHT22;38422;53.172;6.974;2024-01-06T03:41:31;1.70;99.90
52513;DHT22;38422;53.172;6.974;2024-01-06T03:43:57;1.70;99.90
52513;DHT22;38422;53.172;6.974;2024-01-06T03:46:23;1.70;99.90
52513;DHT22;38422;53.172;6.974;2024-01-06T03:48:49;1.70;99.90
52513;DHT22;38422;53.172;6.974;2024-01-06T03:51:15;1.70;99.90
52513;DHT22;38422;53.172;6.974;2024-01-06T03:53:40;1.70;99.90
52513;DHT22;38422;53.172;6.974;2024-01-06T03:56:06;1.70;99.90
52513;DHT22;38422;53.172;6.974;2024-01-06T03:58:32;1.70;99.90
52513;DHT22;38422;53.172;6.974;2024-01-06T04:00:58;1.70;99.90
52513;DHT22;38422;53.172;6.974;2024-01-06T04:03:24;1.70;99.90
52513;DHT22;38422;53.172;6.974;2024-01-06T04:05:49;1.70;99.90
52513;DHT22;38422;53.172;6.974;2024-01-06T04:08:15;1.60;99.90
52513;DHT22;38422;53.172;6.974;2024-01-06T04:10:41;1.60;99.90
52513;DHT22;38422;53.172;6.974;2024-01-06T04:13:07;1.60;99.90
52513;DHT22;38422;53.172;6.974;2024-01-06T04:15:33;1.60;99.90
52513;DHT22;38422;53.172;6.974;2024-01-06T04:18:02;1.60;99.90
52513;DHT22;38422;53.172;6.974;2024-01-06T04:20:29;1.60;99.90
52513;DHT22;38422;53.172;6.974;2024-01-06T04:22:55;1.60;99.90
52513;DHT22;38422;53.172;6.974;2024-01-06T04:25:20;1.60;99.90
52513;DHT22;38422;53.172;6.974;2024-01-06T04:27:47;1.60;99.90
52513;DHT22;38422;53.172;6.974;2024-01-06T04:30:14;1.60;99.90
52513;DHT22;38422;53.172;6.974;2024-01-06T04:32:40;1.60;99.90
52513;DHT22;38422;53.172;6.974;2024-01-06T04:35:06;1.60;99.90
52513;DHT22;38422;53.172;6.974;2024-01-06T04:37:32;1.60;99.90
52513;DHT22;38422;53.172;6.974;2024-01-06T04:39:58;1.60;99.90
52513;DHT22;38422;53.172;6.974;2024-01-06T04:42:23;1.50;99.90
52513;DHT22;38422;53.172;6.974;2024-01-06T04:44:50;1.50;99.90
52513;DHT22;38422;53.172;6.974;2024-01-06T04:47:15;1.50;99.90
52513;DHT22;38422;53.172;6.974;2024-01-06T04:49:41;1.50;99.90
52513;DHT22;38422;53.172;6.974;2024-01-06T04:52:07;1.50;99.90
52513;DHT22;38422;53.172;6.974;2024-01-06T04:54:33;1.50;99.90
52513;DHT22;38422;53.172;6.974;2024-01-06T04:56:59;1.50;99.90
52513;DHT22;38422;53.172;6.974;2024-01-06T04:59:24;1.50;99.90
52513;DHT22;38422;53.172;6.974;2024-01-06T05:01:51;1.50;99.90
52513;DHT22;38422;53.172;6.974;2024-01-06T05:04:17;1.50;99.90
52513;DHT22;38422;53.172;6.974;2024-01-06T05:06:43;1.50;99.90
52513;DHT22;38422;53.172;6.974;2024-01-06T05:09:09;1.50;99.90
52513;DHT22;38422;53.172;6.974;2024-01-06T05:11:35;1.50;99.90
52513;DHT22;38422;53.172;6.974;2024-01-06T05:14:01;1.60;99.90
52513;DHT22;38422;53.172;6.974;2024-01-06T05:16:26;1.50;99.90
52513;DHT22;38422;53.172;6.974;2024-01-06T05:18:53;1.60;99.90
52513;DHT22;38422;53.172;6.974;2024-01-06T05:21:19;1.50;99.90
52513;DHT22;38422;53.172;6.974;2024-01-06T05:23:45;1.60;99.90
52513;DHT22;38422;53.172;6.974;2024-01-06T05:26:11;1.60;99.90
52513;DHT22;38422;53.172;6.974;2024-01-06T05:28:37;1.60;99.90
52513;DHT22;38422;53.172;6.974;2024-01-06T05:31:03;1.60;99.90
52513;DHT22;38422;53.172;6.974;2024-01-06T05:33:28;1.60;99.90
52513;DHT22;38422;53.172;6.974;2024-01-06T05:35:54;1.60;99.90
52513;DHT22;38422;53.172;6.974;2024-01-06T05:38:20;1.60;99.90
52513;DHT22;38422;53.172;6.974;2024-01-06T05:40:45;1.60;99.90
52513;DHT22;38422;53.172;6.974;2024-01-06T05:43:11;1.60;99.90
52513;DHT22;38422;53.172;6.974;2024-01-06T05:45:37;1.60;99.90
52513;DHT22;38422;53.172;6.974;2024-01-06T05:48:05;1.70;99.90
52513;DHT22;38422;53.172;6.974;2024-01-06T05:50:33;1.70;99.90
52513;DHT22;38422;53.172;6.974;2024-01-06T05:52:59;1.60;99.90
52513;DHT22;38422;53.172;6.974;2024-01-06T05:55:25;1.70;99.90
52513;DHT22;38422;53.172;6.974;2024-01-06T05:57:50;1.60;99.90
52513;DHT22;38422;53.172;6.974;2024-01-06T06:00:16;1.60;99.90
52513;DHT22;38422;53.172;6.974;2024-01-06T06:02:42;1.60;99.90
52513;DHT22;38422;53.172;6.974;2024-01-06T06:05:08;1.60;99.90
52513;DHT22;38422;53.172;6.974;2024-01-06T06:07:34;1.60;99.90
52513;DHT22;38422;53.172;6.974;2024-01-06T06:10:09;1.60;99.90
52513;DHT22;38422;53.172;6.974;2024-01-06T06:12:35;1.60;99.90
52513;DHT22;38422;53.172;6.974;2024-01-06T06:15:02;1.60;99.90
52513;DHT22;38422;53.172;6.974;2024-01-06T06:17:29;1.60;99.90
52513;DHT22;38422;53.172;6.974;2024-01-06T06:19:55;1.60;99.90
52513;DHT22;38422;53.172;6.974;2024-01-06T06:22:22;1.60;99.90
52513;DHT22;38422;53.172;6.974;2024-01-06T06:24:48;1.50;99.90
52513;DHT22;38422;53.172;6.974;2024-01-06T06:27:14;1.60;99.90
52513;DHT22;38422;53.172;6.974;2024-01-06T06:29:40;1.60;99.90
52513;DHT22;38422;53.172;6.974;2024-01-06T06:32:05;1.60;99.90
52513;DHT22;38422;53.172;6.974;2024-01-06T06:34:31;1.60;99.90
52513;DHT22;38422;53.172;6.974;2024-01-06T06:36:57;1.60;99.90
52513;DHT22;38422;53.172;6.974;2024-01-06T06:39:24;1.60;99.90
52513;DHT22;38422;53.172;6.974;2024-01-06T06:41:49;1.60;99.90
52513;DHT22;38422;53.172;6.974;2024-01-06T06:44:15;1.60;99.90
52513;DHT22;38422;53.172;6.974;2024-01-06T06:46:41;1.50;99.90
52513;DHT22;38422;53.172;6.974;2024-01-06T06:49:06;1.50;99.90
52513;DHT22;38422;53.172;6.974;2024-01-06T06:51:32;1.50;99.90
52513;DHT22;38422;53.172;6.974;2024-01-06T06:53:58;1.50;99.90
52513;DHT22;38422;53.172;6.974;2024-01-06T06:56:24;1.50;99.90
52513;DHT22;38422;53.172;6.974;2024-01-06T06:58:49;1.50;99.90
52513;DHT22;38422;53.172;6.974;2024-01-06T07:01:16;1.50;99.90
52513;DHT22;38422;53.172;6.974;2024-01-06T07:03:42;1.50;99.90
52513;DHT22;38422;53.172;6.974;2024-01-06T07:06:07;1.50;99.90
52513;DHT22;38422;53.172;6.974;2024-01-06T07:08:33;1.50;99.90
52513;DHT22;38422;53.172;6.974;2024-01-06T07:10:59;1.60;99.90
52513;DHT22;38422;53.172;6.974;2024-01-06T07:13:25;1.50;99.90
52513;DHT22;38422;53.172;6.974;2024-01-06T07:15:52;1.50;99.90
52513;DHT22;38422;53.172;6.974;2024-01-06T07:18:17;1.50;99.90
52513;DHT22;38422;53.172;6.974;2024-01-06T07:20:48;1.50;99.90
52513;DHT22;38422;53.172;6.974;2024-01-06T07:23:14;1.50;99.90
52513;DHT22;38422;53.172;6.974;2024-01-06T07:25:39;1.50;99.90
52513;DHT22;38422;53.172;6.974;2024-01-06T07:28:05;1.50;99.90
52513;DHT22;38422;53.172;6.974;2024-01-06T07:30:31;1.50;99.90
52513;DHT22;38422;53.172;6.974;2024-01-06T07:32:57;1.50;99.90
52513;DHT22;38422;53.172;6.974;2024-01-06T07:35:22;1.60;99.90
52513;DHT22;38422;53.172;6.974;2024-01-06T07:37:48;1.50;99.90
52513;DHT22;38422;53.172;6.974;2024-01-06T07:40:14;1.50;99.90
52513;DHT22;38422;53.172;6.974;2024-01-06T07:42:42;1.50;99.90
52513;DHT22;38422;53.172;6.974;2024-01-06T07:45:08;1.50;99.90
52513;DHT22;38422;53.172;6.974;2024-01-06T07:47:33;1.50;99.90
52513;DHT22;38422;53.172;6.974;2024-01-06T07:49:59;1.50;99.90
52513;DHT22;38422;53.172;6.974;2024-01-06T07:52:25;1.50;99.90
52513;DHT22;38422;53.172;6.974;2024-01-06T07:54:51;1.50;99.90
52513;DHT22;38422;53.172;6.974;2024-01-06T07:57:16;1.60;99.90
52513;DHT22;38422;53.172;6.974;2024-01-06T07:59:42;1.50;99.90
52513;DHT22;38422;53.172;6.974;2024-01-06T08:02:08;1.50;99.90
52513;DHT22;38422;53.172;6.974;2024-01-06T08:04:34;1.50;99.90
52513;DHT22;38422;53.172;6.974;2024-01-06T08:07:00;1.50;99.90
52513;DHT22;38422;53.172;6.974;2024-01-06T08:09:25;1.50;99.90
52513;DHT22;38422;53.172;6.974;2024-01-06T08:11:51;1.50;99.90
52513;DHT22;38422;53.172;6.974;2024-01-06T08:14:17;1.50;99.90
52513;DHT22;38422;53.172;6.974;2024-01-06T08:16:43;1.60;99.90
52513;DHT22;38422;53.172;6.974;2024-01-06T08:19:09;1.50;99.90
52513;DHT22;38422;53.172;6.974;2024-01-06T08:21:35;1.50;99.90
52513;DHT22;38422;53.172;6.974;2024-01-06T08:24:01;1.60;99.90
52513;DHT22;38422;53.172;6.974;2024-01-06T08:26:27;1.50;99.90
52513;DHT22;38422;53.172;6.974;2024-01-06T08:28:53;1.50;99.90
52513;DHT22;38422;53.172;6.974;2024-01-06T08:31:19;1.50;99.90
52513;DHT22;38422;53.172;6.974;2024-01-06T08:33:44;1.60;99.90
52513;DHT22;38422;53.172;6.974;2024-01-06T08:36:11;1.60;99.90
52513;DHT22;38422;53.172;6.974;2024-01-06T08:38:37;1.60;99.90
52513;DHT22;38422;53.172;6.974;2024-01-06T08:41:02;1.50;99.90
52513;DHT22;38422;53.172;6.974;2024-01-06T08:43:28;1.50;99.90
52513;DHT22;38422;53.172;6.974;2024-01-06T08:45:54;1.50;99.90
52513;DHT22;38422;53.172;6.974;2024-01-06T08:48:19;1.50;99.90
52513;DHT22;38422;53.172;6.974;2024-01-06T08:50:45;1.50;99.90
52513;DHT22;38422;53.172;6.974;2024-01-06T08:53:12;1.50;99.90
52513;DHT22;38422;53.172;6.974;2024-01-06T08:55:37;1.50;99.90
52513;DHT22;38422;53.172;6.974;2024-01-06T08:58:03;1.50;99.90
52513;DHT22;38422;53.172;6.974;2024-01-06T09:00:29;1.50;99.90
52513;DHT22;38422;53.172;6.974;2024-01-06T09:02:55;1.50;99.90
52513;DHT22;38422;53.172;6.974;2024-01-06T09:05:41;1.50;99.90
52513;DHT22;38422;53.172;6.974;2024-01-06T09:08:07;1.50;99.90
52513;DHT22;38422;53.172;6.974;2024-01-06T09:10:32;1.50;99.90
52513;DHT22;38422;53.172;6.974;2024-01-06T09:12:58;1.50;99.90
52513;DHT22;38422;53.172;6.974;2024-01-06T09:15:24;1.50;99.90
52513;DHT22;38422;53.172;6.974;2024-01-06T09:17:49;1.50;99.90
52513;DHT22;38422;53.172;6.974;2024-01-06T09:20:15;1.50;99.90
52513;DHT22;38422;53.172;6.974;2024-01-06T09:22:42;1.50;99.90
52513;DHT22;38422;53.172;6.974;2024-01-06T09:25:09;1.50;99.90
52513;DHT22;38422;53.172;6.974;2024-01-06T09:30:53;1.50;99.90
52513;DHT22;38422;53.172;6.974;2024-01-06T09:33:21;1.50;99.90
52513;DHT22;38422;53.172;6.974;2024-01-06T09:35:47;1.50;99.90
52513;DHT22;38422;53.172;6.974;2024-01-06T09:38:13;1.50;99.90
52513;DHT22;38422;53.172;6.974;2024-01-06T09:40:43;1.50;99.90
52513;DHT22;38422;53.172;6.974;2024-01-06T09:43:10;1.50;99.90
52513;DHT22;38422;53.172;6.974;2024-01-06T09:45:37;1.50;99.90
52513;DHT22;38422;53.172;6.974;2024-01-06T09:48:22;1.50;99.90
52513;DHT22;38422;53.172;6.974;2024-01-06T09:50:54;1.50;99.90
52513;DHT22;38422;53.172;6.974;2024-01-06T09:53:23;1.50;99.90
52513;DHT22;38422;53.172;6.974;2024-01-06T09:55:51;1.50;99.90
52513;DHT22;38422;53.172;6.974;2024-01-06T09:58:17;1.60;99.90
52513;DHT22;38422;53.172;6.974;2024-01-06T10:00:43;1.60;99.90
52513;DHT22;38422;53.172;6.974;2024-01-06T10:03:09;1.60;99.90
52513;DHT22;38422;53.172;6.974;2024-01-06T10:05:35;1.60;99.90
52513;DHT22;38422;53.172;6.974;2024-01-06T10:08:01;1.60;99.90
52513;DHT22;38422;53.172;6.974;2024-01-06T10:10:29;1.70;99.90
52513;DHT22;38422;53.172;6.974;2024-01-06T10:12:55;1.70;99.90
52513;DHT22;38422;53.172;6.974;2024-01-06T10:15:21;1.70;99.90
52513;DHT22;38422;53.172;6.974;2024-01-06T10:17:47;1.70;99.90
52513;DHT22;38422;53.172;6.974;2024-01-06T10:20:13;1.70;99.90
52513;DHT22;38422;53.172;6.974;2024-01-06T10:22:41;1.70;99.90
52513;DHT22;38422;53.172;6.974;2024-01-06T10:25:08;1.70;99.90
52513;DHT22;38422;53.172;6.974;2024-01-06T10:27:38;1.70;99.90
52513;DHT22;38422;53.172;6.974;2024-01-06T10:33:45;1.80;99.90
52513;DHT22;38422;53.172;6.974;2024-01-06T10:36:10;1.80;99.90
52513;DHT22;38422;53.172;6.974;2024-01-06T10:46:04;1.90;99.90
52513;DHT22;38422;53.172;6.974;2024-01-06T10:59:51;1.80;99.90
52513;DHT22;38422;53.172;6.974;2024-01-06T11:02:17;1.80;99.90
52513;DHT22;38422;53.172;6.974;2024-01-06T11:04:47;1.80;99.90
52513;DHT22;38422;53.172;6.974;2024-01-06T11:11:44;1.70;99.90
52513;DHT22;38422;53.172;6.974;2024-01-06T11:14:25;1.70;99.90
52513;DHT22;38422;53.172;6.974;2024-01-06T11:17:01;1.70;99.90
52513;DHT22;38422;53.172;6.974;2024-01-06T11:23:18;1.70;99.90
52513;DHT22;38422;53.172;6.974;2024-01-06T11:25:47;1.70;99.90
52513;DHT22;38422;53.172;6.974;2024-01-06T11:28:13;1.70;99.90
52513;DHT22;38422;53.172;6.974;2024-01-06T11:31:13;1.80;99.90
52513;DHT22;38422;53.172;6.974;2024-01-06T11:37:03;1.80;99.90
52513;DHT22;38422;53.172;6.974;2024-01-06T11:39:36;1.70;99.90
52513;DHT22;38422;53.172;6.974;2024-01-06T11:57:24;1.80;99.90
52513;DHT22;38422;53.172;6.974;2024-01-06T11:59:50;1.80;99.90
52513;DHT22;38422;53.172;6.974;2024-01-06T12:02:38;1.80;99.90
52513;DHT22;38422;53.172;6.974;2024-01-06T12:08:47;1.80;99.90
52513;DHT22;38422;53.172;6.974;2024-01-06T12:11:13;1.90;99.90
52513;DHT22;38422;53.172;6.974;2024-01-06T12:13:44;1.90;99.90
52513;DHT22;38422;53.172;6.974;2024-01-06T12:16:10;1.80;99.90
52513;DHT22;38422;53.172;6.974;2024-01-06T12:18:36;1.80;99.90
52513;DHT22;38422;53.172;6.974;2024-01-06T12:36:24;1.80;99.90
52513;DHT22;38422;53.172;6.974;2024-01-06T12:38:50;1.80;99.90
52513;DHT22;38422;53.172;6.974;2024-01-06T12:41:16;1.80;99.90
52513;DHT22;38422;53.172;6.974;2024-01-06T12:43:42;1.80;99.90
52513;DHT22;38422;53.172;6.974;2024-01-06T12:46:07;1.80;99.90
52513;DHT22;38422;53.172;6.974;2024-01-06T12:48:33;1.80;99.90
52513;DHT22;38422;53.172;6.974;2024-01-06T12:50:59;1.80;99.90
52513;DHT22;38422;53.172;6.974;2024-01-06T12:53:24;1.90;99.90
52513;DHT22;38422;53.172;6.974;2024-01-06T12:55:50;1.80;99.90
52513;DHT22;38422;53.172;6.974;2024-01-06T12:58:16;1.80;99.90
52513;DHT22;38422;53.172;6.974;2024-01-06T13:00:41;1.80;99.90
52513;DHT22;38422;53.172;6.974;2024-01-06T13:03:07;1.80;99.90
52513;DHT22;38422;53.172;6.974;2024-01-06T13:05:34;1.80;99.90
52513;DHT22;38422;53.172;6.974;2024-01-06T13:08:00;1.80;99.90
52513;DHT22;38422;53.172;6.974;2024-01-06T13:10:27;1.80;99.90
52513;DHT22;38422;53.172;6.974;2024-01-06T13:12:53;1.80;99.90
52513;DHT22;38422;53.172;6.974;2024-01-06T13:15:18;1.80;99.90
52513;DHT22;38422;53.172;6.974;2024-01-06T13:17:44;1.80;99.90
52513;DHT22;38422;53.172;6.974;2024-01-06T13:20:10;1.80;99.90
52513;DHT22;38422;53.172;6.974;2024-01-06T13:22:36;1.80;99.90
52513;DHT22;38422;53.172;6.974;2024-01-06T13:25:01;1.80;99.90
52513;DHT22;38422;53.172;6.974;2024-01-06T13:27:27;1.80;99.90
52513;DHT22;38422;53.172;6.974;2024-01-06T13:29:53;1.70;99.90
52513;DHT22;38422;53.172;6.974;2024-01-06T13:32:19;1.70;99.90
52513;DHT22;38422;53.172;6.974;2024-01-06T13:34:47;1.70;99.90
52513;DHT22;38422;53.172;6.974;2024-01-06T13:37:13;1.70;99.90
52513;DHT22;38422;53.172;6.974;2024-01-06T13:39:39;1.60;99.90
52513;DHT22;38422;53.172;6.974;2024-01-06T13:42:05;1.60;99.90
52513;DHT22;38422;53.172;6.974;2024-01-06T13:44:30;1.60;99.90
52513;DHT22;38422;53.172;6.974;2024-01-06T13:46:56;1.60;99.90
52513;DHT22;38422;53.172;6.974;2024-01-06T13:49:22;1.50;99.90
52513;DHT22;38422;53.172;6.974;2024-01-06T13:51:49;1.50;99.90
52513;DHT22;38422;53.172;6.974;2024-01-06T13:54:14;1.50;99.90
52513;DHT22;38422;53.172;6.974;2024-01-06T13:56:40;1.50;99.90
52513;DHT22;38422;53.172;6.974;2024-01-06T13:59:06;1.50;99.90
52513;DHT22;38422;53.172;6.974;2024-01-06T14:01:32;1.50;99.90
52513;DHT22;38422;53.172;6.974;2024-01-06T14:03:58;1.50;99.90
52513;DHT22;38422;53.172;6.974;2024-01-06T14:06:27;1.40;99.90
52513;DHT22;38422;53.172;6.974;2024-01-06T14:08:56;1.40;99.90
52513;DHT22;38422;53.172;6.974;2024-01-06T14:11:22;1.30;99.90
52513;DHT22;38422;53.172;6.974;2024-01-06T14:13:48;1.30;99.90
52513;DHT22;38422;53.172;6.974;2024-01-06T14:16:18;1.30;99.90
52513;DHT22;38422;53.172;6.974;2024-01-06T14:18:44;1.30;99.90
52513;DHT22;38422;53.172;6.974;2024-01-06T14:21:10;1.30;99.90
52513;DHT22;38422;53.172;6.974;2024-01-06T14:23:37;1.30;99.90
52513;DHT22;38422;53.172;6.974;2024-01-06T14:26:03;1.30;99.90
52513;DHT22;38422;53.172;6.974;2024-01-06T14:28:29;1.30;99.90
52513;DHT22;38422;53.172;6.974;2024-01-06T14:30:55;1.30;99.90
52513;DHT22;38422;53.172;6.974;2024-01-06T14:33:21;1.30;99.90
52513;DHT22;38422;53.172;6.974;2024-01-06T14:35:47;1.20;99.90
52513;DHT22;38422;53.172;6.974;2024-01-06T14:38:13;1.20;99.90
52513;DHT22;38422;53.172;6.974;2024-01-06T14:40:39;1.20;99.90
52513;DHT22;38422;53.172;6.974;2024-01-06T14:43:04;1.20;99.90
52513;DHT22;38422;53.172;6.974;2024-01-06T14:45:31;1.20;99.90
52513;DHT22;38422;53.172;6.974;2024-01-06T14:47:57;1.20;99.90
52513;DHT22;38422;53.172;6.974;2024-01-06T14:50:22;1.20;99.90
52513;DHT22;38422;53.172;6.974;2024-01-06T14:52:48;1.20;99.90
52513;DHT22;38422;53.172;6.974;2024-01-06T14:55:15;1.20;99.90
52513;DHT22;38422;53.172;6.974;2024-01-06T14:57:40;1.20;99.90
52513;DHT22;38422;53.172;6.974;2024-01-06T15:00:07;1.20;99.90
52513;DHT22;38422;53.172;6.974;2024-01-06T15:02:36;1.20;99.90
52513;DHT22;38422;53.172;6.974;2024-01-06T15:05:02;1.20;99.90
52513;DHT22;38422;53.172;6.974;2024-01-06T15:07:30;1.20;99.90
52513;DHT22;38422;53.172;6.974;2024-01-06T15:10:00;1.10;99.90
52513;DHT22;38422;53.172;6.974;2024-01-06T15:12:27;1.20;99.90
52513;DHT22;38422;53.172;6.974;2024-01-06T15:14:53;1.10;99.90
52513;DHT22;38422;53.172;6.974;2024-01-06T15:17:19;1.20;99.90
52513;DHT22;38422;53.172;6.974;2024-01-06T15:19:45;1.10;99.90
52513;DHT22;38422;53.172;6.974;2024-01-06T15:22:12;1.10;99.90
52513;DHT22;38422;53.172;6.974;2024-01-06T15:24:39;1.10;99.90
52513;DHT22;38422;53.172;6.974;2024-01-06T15:27:05;1.10;99.90
52513;DHT22;38422;53.172;6.974;2024-01-06T15:29:30;1.10;99.90
52513;DHT22;38422;53.172;6.974;2024-01-06T15:31:56;1.10;99.90
52513;DHT22;38422;53.172;6.974;2024-01-06T15:34:25;1.00;99.90
52513;DHT22;38422;53.172;6.974;2024-01-06T15:36:51;1.00;99.90
52513;DHT22;38422;53.172;6.974;2024-01-06T15:39:17;1.00;99.90
52513;DHT22;38422;53.172;6.974;2024-01-06T15:41:43;1.00;99.90
52513;DHT22;38422;53.172;6.974;2024-01-06T15:44:09;1.00;99.90
52513;DHT22;38422;53.172;6.974;2024-01-06T15:46:35;1.00;99.90
52513;DHT22;38422;53.172;6.974;2024-01-06T15:49:02;1.00;99.90
52513;DHT22;38422;53.172;6.974;2024-01-06T15:51:27;1.00;99.90
52513;DHT22;38422;53.172;6.974;2024-01-06T15:53:53;1.00;99.90
52513;DHT22;38422;53.172;6.974;2024-01-06T15:56:19;1.00;99.90
52513;DHT22;38422;53.172;6.974;2024-01-06T15:58:45;1.00;99.90
52513;DHT22;38422;53.172;6.974;2024-01-06T16:01:11;1.00;99.90
52513;DHT22;38422;53.172;6.974;2024-01-06T16:03:36;1.00;99.90
52513;DHT22;38422;53.172;6.974;2024-01-06T16:06:02;1.00;99.90
52513;DHT22;38422;53.172;6.974;2024-01-06T16:08:28;0.90;99.90
52513;DHT22;38422;53.172;6.974;2024-01-06T16:10:54;0.90;99.90
52513;DHT22;38422;53.172;6.974;2024-01-06T16:13:20;0.90;99.90
52513;DHT22;38422;53.172;6.974;2024-01-06T16:15:46;0.90;99.90
52513;DHT22;38422;53.172;6.974;2024-01-06T16:18:11;0.90;99.90
52513;DHT22;38422;53.172;6.974;2024-01-06T16:20:37;0.90;99.90
52513;DHT22;38422;53.172;6.974;2024-01-06T16:23:03;0.90;99.90
52513;DHT22;38422;53.172;6.974;2024-01-06T16:25:30;0.90;99.90
52513;DHT22;38422;53.172;6.974;2024-01-06T16:27:55;0.90;99.90
52513;DHT22;38422;53.172;6.974;2024-01-06T16:30:21;0.90;99.90
52513;DHT22;38422;53.172;6.974;2024-01-06T16:32:48;0.90;99.90
52513;DHT22;38422;53.172;6.974;2024-01-06T16:35:16;0.90;99.90
52513;DHT22;38422;53.172;6.974;2024-01-06T16:37:46;0.90;99.90
52513;DHT22;38422;53.172;6.974;2024-01-06T16:40:12;0.90;99.90
52513;DHT22;38422;53.172;6.974;2024-01-06T16:42:37;0.90;99.90
52513;DHT22;38422;53.172;6.974;2024-01-06T16:45:06;0.80;99.90
52513;DHT22;38422;53.172;6.974;2024-01-06T16:51:19;0.80;99.90
52513;DHT22;38422;53.172;6.974;2024-01-06T16:54:03;0.80;99.90
52513;DHT22;38422;53.172;6.974;2024-01-06T16:56:28;0.80;99.90